createdAt,value
2018-06-24T00:00:34.490Z,78.50
2018-06-24T00:03:05.308Z,117.57
2018-06-24T00:05:35.727Z,74.90
2018-06-24T00:08:06.339Z,83.33
2018-06-24T00:10:36.414Z,98.17
2018-06-24T00:13:06.858Z,58.77
2018-06-24T00:15:36.652Z,115.57
2018-06-24T00:18:06.435Z,78.13
2018-06-24T00:20:37.412Z,138.23
2018-06-24T00:23:07.983Z,79.30
2018-06-24T00:25:38.735Z,81.97
2018-06-24T00:28:09.163Z,19.00
2018-06-24T00:30:39.191Z,15.07
2018-06-24T00:33:09.687Z,17.40
2018-06-24T00:35:39.721Z,17.77
2018-06-24T00:38:10.083Z,20.53
2018-06-24T00:40:40.718Z,27.00
2018-06-24T00:43:11.234Z,25.00
2018-06-24T00:45:41.822Z,22.60
2018-06-24T00:48:12.273Z,16.77
2018-06-24T00:50:42.724Z,17.67
2018-06-24T00:53:13.149Z,20.30
2018-06-24T00:55:44.038Z,21.13
2018-06-24T00:58:14.852Z,22.50
2018-06-24T01:00:45.413Z,21.43
2018-06-24T01:03:15.953Z,17.50
2018-06-24T01:05:46.565Z,19.83
2018-06-24T01:08:17.043Z,23.73
2018-06-24T01:10:47.565Z,22.03
2018-06-24T01:13:17.940Z,26.70
2018-06-24T01:15:48.572Z,26.17
2018-06-24T01:18:18.964Z,32.20
2018-06-24T01:20:49.545Z,19.67
2018-06-24T01:23:20.204Z,21.33
2018-06-24T01:25:50.667Z,19.60
2018-06-24T01:28:21.150Z,17.50
2018-06-24T01:30:50.970Z,25.27
2018-06-24T01:33:21.308Z,28.27
2018-06-24T01:35:51.691Z,25.83
2018-06-24T01:38:22.271Z,21.73
2018-06-24T01:40:52.885Z,26.60
2018-06-24T01:43:24.091Z,23.53
2018-06-24T01:45:54.603Z,22.90
2018-06-24T01:48:25.103Z,17.80
2018-06-24T01:50:55.595Z,18.53
2018-06-24T01:53:26.120Z,23.63
2018-06-24T01:55:56.498Z,33.93
2018-06-24T01:58:26.517Z,39.80
2018-06-24T02:00:57.202Z,35.87
2018-06-24T02:03:27.576Z,24.30
2018-06-24T02:05:57.969Z,27.37
2018-06-24T02:08:28.534Z,16.77
2018-06-24T02:10:59.243Z,22.10
2018-06-24T02:13:29.793Z,40.63
2018-06-24T02:16:00.475Z,50.10
2018-06-24T02:18:31.194Z,28.50
2018-06-24T02:21:01.763Z,59.03
2018-06-24T02:23:32.198Z,37.87
2018-06-24T02:26:03.202Z,28.73
2018-06-24T02:28:33.821Z,43.53
2018-06-24T02:31:04.465Z,52.47
2018-06-24T02:33:35.004Z,34.00
2018-06-24T02:36:05.551Z,31.63
2018-06-24T02:38:35.983Z,25.53
2018-06-24T02:41:06.489Z,31.80
2018-06-24T02:43:37.041Z,25.30
2018-06-24T02:46:07.966Z,37.23
2018-06-24T02:48:38.536Z,19.33
2018-06-24T02:51:08.424Z,47.83
2018-06-24T02:53:38.675Z,66.03
2018-06-24T02:56:09.179Z,74.67
2018-06-24T02:58:39.857Z,76.97
2018-06-24T03:01:09.656Z,78.77
2018-06-24T03:03:40.554Z,72.27
2018-06-24T03:06:11.254Z,54.33
2018-06-24T03:08:41.796Z,43.77
2018-06-24T03:11:12.025Z,43.20
2018-06-24T03:13:42.545Z,56.60
2018-06-24T03:16:13.115Z,40.23
2018-06-24T03:18:43.978Z,55.37
2018-06-24T03:21:14.503Z,54.60
2018-06-24T03:23:45.048Z,45.60
2018-06-24T03:26:15.565Z,26.70
2018-06-24T03:28:45.900Z,18.87
2018-06-24T03:31:15.712Z,24.50
2018-06-24T03:33:46.256Z,28.77
2018-06-24T03:36:16.701Z,41.50
2018-06-24T03:38:47.421Z,38.80
2018-06-24T03:41:17.793Z,52.67
2018-06-24T03:43:48.315Z,34.80
2018-06-24T03:46:18.822Z,37.20
2018-06-24T03:48:49.324Z,22.87
2018-06-24T03:51:19.859Z,29.33
2018-06-24T03:53:50.248Z,39.87
2018-06-24T03:56:20.543Z,26.37
2018-06-24T03:58:50.936Z,10.87
2018-06-24T04:01:21.405Z,16.20
2018-06-24T04:03:51.902Z,13.87
2018-06-24T04:06:22.404Z,16.93
2018-06-24T04:08:53.467Z,16.27
2018-06-24T04:11:24.034Z,11.20
2018-06-24T04:13:54.860Z,14.00
2018-06-24T04:16:25.590Z,14.93
2018-06-24T04:18:56.197Z,29.47
2018-06-24T04:21:26.725Z,18.60
2018-06-24T04:23:57.174Z,18.10
2018-06-24T04:26:27.742Z,15.93
2018-06-24T04:28:58.307Z,14.13
2018-06-24T04:31:28.946Z,11.00
2018-06-24T04:33:58.940Z,11.23
2018-06-24T04:36:29.285Z,10.87
2018-06-24T04:38:59.696Z,13.90
2018-06-24T04:41:30.448Z,7.87
2018-06-24T04:44:00.873Z,8.57
2018-06-24T04:46:31.271Z,12.93
2018-06-24T04:49:01.630Z,16.27
2018-06-24T04:51:32.817Z,13.40
2018-06-24T04:54:02.708Z,16.27
2018-06-24T04:56:32.930Z,13.53
2018-06-24T04:59:03.745Z,15.80
2018-06-24T05:01:34.151Z,15.10
2018-06-24T05:04:04.639Z,13.73
2018-06-24T05:06:35.202Z,13.77
2018-06-24T05:09:08.197Z,13.80
2018-06-24T05:11:38.741Z,13.23
2018-06-24T05:14:09.254Z,10.13
2018-06-24T05:16:39.633Z,8.93
2018-06-24T05:19:09.627Z,7.20
2018-06-24T05:21:39.940Z,10.50
2018-06-24T05:24:10.771Z,14.50
2018-06-24T05:26:41.431Z,15.37
2018-06-24T05:29:12.242Z,11.37
2018-06-24T05:31:42.671Z,10.97
2018-06-24T05:34:12.970Z,13.00
2018-06-24T05:36:44.125Z,16.43
2018-06-24T05:39:14.165Z,14.20
2018-06-24T05:41:44.039Z,7.33
2018-06-24T05:44:14.490Z,8.10
2018-06-24T05:46:45.037Z,6.30
2018-06-24T05:49:15.011Z,6.63
2018-06-24T05:51:45.507Z,7.37
2018-06-24T05:54:16.009Z,9.83
2018-06-24T05:56:46.719Z,8.53
2018-06-24T05:59:17.293Z,7.57
2018-06-24T06:01:47.955Z,5.63
2018-06-24T06:04:18.409Z,6.63
2018-06-24T06:06:48.955Z,11.13
2018-06-24T06:09:19.576Z,9.10
2018-06-24T06:11:50.411Z,11.23
2018-06-24T06:14:20.787Z,6.37
2018-06-24T06:16:51.269Z,10.30
2018-06-24T06:19:21.791Z,10.23
2018-06-24T06:21:52.443Z,9.40
2018-06-24T06:24:22.767Z,7.43
2018-06-24T06:26:53.227Z,11.57
2018-06-24T06:29:24.021Z,7.80
2018-06-24T06:31:54.475Z,12.37
2018-06-24T06:34:24.944Z,9.70
2018-06-24T06:36:54.862Z,9.83
2018-06-24T06:39:25.333Z,9.10
2018-06-24T06:41:55.900Z,11.20
2018-06-24T06:44:26.565Z,8.23
2018-06-24T06:46:57.105Z,12.63
2018-06-24T06:49:27.733Z,9.40
2018-06-24T06:51:58.269Z,8.87
2018-06-24T06:54:28.710Z,5.60
2018-06-24T06:56:59.456Z,13.73
2018-06-24T06:59:29.925Z,10.60
2018-06-24T07:02:00.697Z,14.00
2018-06-24T07:04:31.206Z,12.43
2018-06-24T07:07:02.067Z,7.47
2018-06-24T07:09:32.082Z,7.53
2018-06-24T07:12:01.740Z,5.07
2018-06-24T07:14:32.054Z,7.10
2018-06-24T07:17:02.528Z,8.03
2018-06-24T07:19:32.913Z,9.97
2018-06-24T07:22:03.744Z,7.00
2018-06-24T07:24:34.138Z,16.90
2018-06-24T07:27:04.672Z,8.77
2018-06-24T07:29:35.625Z,5.33
2018-06-24T07:32:05.720Z,8.93
2018-06-24T07:34:36.073Z,5.50
2018-06-24T07:37:06.551Z,8.60
2018-06-24T07:39:36.405Z,8.73
2018-06-24T07:42:06.325Z,6.87
2018-06-24T07:44:36.719Z,11.93
2018-06-24T07:47:07.221Z,10.60
2018-06-24T07:49:37.862Z,7.17
2018-06-24T07:52:08.399Z,7.67
2018-06-24T07:54:39.163Z,9.63
2018-06-24T07:57:09.894Z,6.23
2018-06-24T07:59:40.334Z,9.70
2018-06-24T08:02:10.814Z,10.90
2018-06-24T08:04:41.431Z,13.73
2018-06-24T08:07:11.834Z,5.47
2018-06-24T08:09:42.660Z,6.43
2018-06-24T08:12:13.086Z,9.67
2018-06-24T08:14:43.599Z,4.17
2018-06-24T08:17:14.512Z,4.20
2018-06-24T08:19:44.901Z,10.50
2018-06-24T08:22:15.372Z,7.20
2018-06-24T08:24:45.868Z,5.43
2018-06-24T08:27:16.201Z,5.07
2018-06-24T08:29:46.764Z,9.67
2018-06-24T08:32:17.191Z,5.43
2018-06-24T08:34:47.817Z,7.90
2018-06-24T08:37:18.200Z,7.60
2018-06-24T08:39:48.718Z,4.43
2018-06-24T08:42:27.730Z,9.27
2018-06-24T08:44:58.892Z,8.83
2018-06-24T08:47:31.047Z,4.43
2018-06-24T08:50:02.854Z,7.80
2018-06-24T08:52:34.071Z,8.20
2018-06-24T08:55:06.356Z,8.17
2018-06-24T08:57:37.774Z,8.70
2018-06-24T09:00:08.954Z,8.10
2018-06-24T09:02:39.569Z,5.80
2018-06-24T09:05:21.699Z,6.73
2018-06-24T09:07:58.956Z,8.20
2018-06-24T09:10:35.461Z,6.20
2018-06-24T09:13:08.692Z,4.50
2018-06-24T09:15:45.310Z,11.33
2018-06-24T09:18:17.807Z,5.60
2018-06-24T09:20:50.406Z,8.77
2018-06-24T09:23:23.143Z,4.67
2018-06-24T09:25:53.866Z,10.67
2018-06-24T09:28:24.426Z,9.53
2018-06-24T09:30:55.230Z,6.67
2018-06-24T09:33:25.780Z,7.20
2018-06-24T09:35:56.223Z,24.37
2018-06-24T09:38:26.718Z,4.93
2018-06-24T09:40:57.468Z,8.13
2018-06-24T09:43:27.917Z,16.47
2018-06-24T09:45:58.417Z,6.47
2018-06-24T09:48:28.336Z,8.00
2018-06-24T09:50:59.300Z,27.87
2018-06-24T09:53:29.863Z,25.97
2018-06-24T09:56:00.682Z,17.03
2018-06-24T09:58:31.182Z,7.30
2018-06-24T10:01:01.816Z,10.50
2018-06-24T10:03:32.343Z,4.87
2018-06-24T10:06:03.118Z,4.87
2018-06-24T10:08:33.541Z,7.53
2018-06-24T10:11:04.983Z,9.43
2018-06-24T10:13:35.727Z,9.27
2018-06-24T10:16:06.176Z,14.67
2018-06-24T10:18:39.564Z,20.53
2018-06-24T10:21:10.059Z,4.20
2018-06-24T10:23:40.458Z,9.60
2018-06-24T10:26:10.891Z,5.60
2018-06-24T10:28:41.431Z,11.33
2018-06-24T10:31:11.919Z,60.73
2018-06-24T10:33:42.337Z,8.53
2018-06-24T10:36:12.871Z,12.13
2018-06-24T10:38:43.481Z,5.03
2018-06-24T10:41:14.030Z,14.13
2018-06-24T10:43:44.551Z,9.60
2018-06-24T10:46:15.512Z,9.50
2018-06-24T10:48:46.114Z,11.17
2018-06-24T10:51:16.903Z,4.07
2018-06-24T10:53:47.475Z,13.50
2018-06-24T10:56:18.176Z,6.57
2018-06-24T10:58:48.785Z,5.57
2018-06-24T11:01:18.778Z,3.77
2018-06-24T11:03:49.443Z,16.53
2018-06-24T11:06:20.587Z,16.60
2018-06-24T11:08:50.988Z,14.80
2018-06-24T11:11:21.565Z,7.50
2018-06-24T11:13:52.175Z,13.53
2018-06-24T11:16:29.070Z,18.30
2018-06-24T11:18:59.747Z,7.57
2018-06-24T11:21:31.031Z,8.07
2018-06-24T11:24:01.443Z,12.43
2018-06-24T11:26:32.044Z,9.43
2018-06-24T11:29:02.883Z,9.97
2018-06-24T11:31:33.328Z,7.17
2018-06-24T11:34:03.827Z,8.63
2018-06-24T11:36:34.381Z,5.50
2018-06-24T11:39:04.319Z,5.97
2018-06-24T11:41:34.628Z,5.03
2018-06-24T11:44:05.330Z,5.73
2018-06-24T11:46:35.891Z,4.67
2018-06-24T11:49:06.157Z,10.07
2018-06-24T11:51:36.527Z,5.93
2018-06-24T11:54:06.300Z,10.00
2018-06-24T11:56:36.756Z,3.13
2018-06-24T11:59:07.139Z,3.63
2018-06-24T12:01:37.662Z,9.43
2018-06-24T12:04:08.043Z,10.43
2018-06-24T12:06:38.576Z,9.83
2018-06-24T12:09:11.912Z,11.93
2018-06-24T12:11:42.346Z,6.90
2018-06-24T12:14:13.175Z,8.90
2018-06-24T12:16:43.579Z,5.77
2018-06-24T12:19:14.476Z,8.97
2018-06-24T12:21:45.282Z,8.40
2018-06-24T12:24:15.702Z,5.57
2018-06-24T12:26:46.227Z,4.70
2018-06-24T12:29:16.621Z,4.97
2018-06-24T12:31:46.586Z,6.93
2018-06-24T12:34:17.212Z,5.10
2018-06-24T12:36:47.664Z,11.23
2018-06-24T12:39:19.016Z,6.47
2018-06-24T12:41:49.573Z,5.37
2018-06-24T12:44:20.271Z,5.90
2018-06-24T12:46:50.866Z,8.90
2018-06-24T12:49:23.648Z,8.57
2018-06-24T12:51:54.340Z,15.27
2018-06-24T12:54:24.831Z,14.73
2018-06-24T12:56:55.294Z,3.57
2018-06-24T12:59:26.676Z,7.87
2018-06-24T13:01:57.239Z,21.03
2018-06-24T13:04:27.673Z,6.47
2018-06-24T13:06:59.067Z,6.80
2018-06-24T13:09:30.042Z,8.07
2018-06-24T13:12:00.547Z,6.83
2018-06-24T13:14:34.980Z,7.27
2018-06-24T13:17:07.975Z,3.73
2018-06-24T13:19:38.394Z,4.83
2018-06-24T13:22:08.823Z,11.53
2018-06-24T13:24:39.542Z,4.40
2018-06-24T13:27:09.989Z,3.83
2018-06-24T13:29:40.761Z,6.60
2018-06-24T13:32:11.125Z,4.90
2018-06-24T13:34:41.781Z,6.03
2018-06-24T13:37:12.419Z,7.00
2018-06-24T13:39:42.820Z,15.20
2018-06-24T13:42:13.324Z,13.07
2018-06-24T13:44:43.954Z,5.93
2018-06-24T13:47:14.545Z,3.37
2018-06-24T13:49:44.897Z,6.33
2018-06-24T13:52:15.556Z,26.07
2018-06-24T13:54:46.066Z,3.73
2018-06-24T13:57:16.418Z,4.83
2018-06-24T13:59:46.790Z,3.20
2018-06-24T14:02:17.278Z,7.20
2018-06-24T14:04:47.930Z,3.93
2018-06-24T14:07:18.661Z,7.17
2018-06-24T14:09:49.170Z,5.07
2018-06-24T14:12:18.945Z,2.30
2018-06-24T14:14:49.353Z,7.27
2018-06-24T14:17:19.529Z,2.97
2018-06-24T14:19:50.686Z,3.00
2018-06-24T14:22:21.130Z,7.77
2018-06-24T14:24:51.790Z,6.87
2018-06-24T14:27:22.319Z,6.07
2018-06-24T14:29:52.668Z,8.30
2018-06-24T14:32:23.239Z,6.97
2018-06-24T14:34:54.083Z,6.37
2018-06-24T14:37:26.278Z,6.20
2018-06-24T14:39:57.071Z,8.37
2018-06-24T14:42:27.015Z,10.73
2018-06-24T14:44:57.266Z,13.80
2018-06-24T14:47:27.946Z,8.77
2018-06-24T14:49:58.418Z,7.53
2018-06-24T14:52:28.898Z,6.43
2018-06-24T14:54:59.659Z,4.70
2018-06-24T14:57:30.214Z,9.10
2018-06-24T15:00:00.717Z,7.90
2018-06-24T15:02:31.912Z,14.90
2018-06-24T15:05:02.317Z,8.10
2018-06-24T15:07:32.639Z,7.03
2018-06-24T15:10:03.203Z,6.67
2018-06-24T15:12:33.633Z,6.57
2018-06-24T15:15:04.104Z,6.73
2018-06-24T15:17:34.666Z,12.27
2018-06-24T15:20:05.129Z,7.07
2018-06-24T15:22:35.709Z,9.47
2018-06-24T15:25:06.619Z,14.40
2018-06-24T15:27:37.128Z,13.23
2018-06-24T15:30:07.739Z,37.57
2018-06-24T15:32:38.485Z,6.43
2018-06-24T15:35:09.169Z,9.37
2018-06-24T15:37:40.310Z,7.40
2018-06-24T15:40:10.756Z,9.03
2018-06-24T15:42:41.677Z,12.27
2018-06-24T15:45:12.286Z,12.27
2018-06-24T15:47:43.657Z,8.40
2018-06-24T15:50:14.696Z,11.37
2018-06-24T15:52:45.264Z,14.07
2018-06-24T15:55:15.626Z,6.50
2018-06-24T15:57:45.653Z,5.00
2018-06-24T16:00:15.916Z,23.83
2018-06-24T16:02:45.769Z,15.63
2018-06-24T16:05:16.191Z,14.13
2018-06-24T16:07:46.669Z,8.37
2018-06-24T16:10:16.999Z,7.60
2018-06-24T16:12:46.933Z,18.97
2018-06-24T16:15:17.407Z,9.53
2018-06-24T16:17:47.960Z,8.63
2018-06-24T16:20:18.456Z,10.37
2018-06-24T16:22:48.987Z,8.20
2018-06-24T16:25:19.718Z,8.10
2018-06-24T16:27:49.425Z,23.03
2018-06-24T16:30:19.844Z,8.67
2018-06-24T16:32:50.304Z,9.80
2018-06-24T16:35:20.910Z,9.77
2018-06-24T16:37:51.572Z,7.67
2018-06-24T16:40:22.183Z,8.10
2018-06-24T16:42:52.901Z,12.77
2018-06-24T16:45:23.344Z,13.97
2018-06-24T16:47:53.987Z,6.57
2018-06-24T16:50:24.402Z,13.77
2018-06-24T16:52:55.059Z,8.53
2018-06-24T16:55:25.793Z,12.87
2018-06-24T16:57:56.288Z,16.00
2018-06-24T17:00:26.737Z,20.00
2018-06-24T17:02:57.645Z,21.27
2018-06-24T17:05:28.169Z,14.77
2018-06-24T17:07:58.761Z,19.77
2018-06-24T17:10:29.154Z,28.87
2018-06-24T17:12:59.819Z,22.63
2018-06-24T17:15:34.192Z,51.23
2018-06-24T17:18:05.338Z,13.10
2018-06-24T17:20:35.794Z,15.57
2018-06-24T17:23:06.334Z,16.30
2018-06-24T17:25:37.106Z,12.17
2018-06-24T17:28:07.703Z,14.73
2018-06-24T17:30:38.176Z,10.30
2018-06-24T17:33:08.818Z,13.40
2018-06-24T17:35:39.269Z,12.37
2018-06-24T17:38:09.930Z,6.93
2018-06-24T17:40:41.237Z,13.13
2018-06-24T17:43:12.606Z,34.10
2018-06-24T17:45:43.198Z,10.80
2018-06-24T17:48:13.694Z,11.23
2018-06-24T17:50:44.277Z,8.00
2018-06-24T17:53:14.738Z,7.23
2018-06-24T17:55:45.170Z,9.47
2018-06-24T17:58:18.431Z,6.93
2018-06-24T18:00:59.012Z,8.13
2018-06-24T18:03:30.782Z,14.87
2018-06-24T18:06:00.932Z,14.13
2018-06-24T18:08:32.337Z,8.50
2018-06-24T18:11:04.472Z,6.40
2018-06-24T18:13:37.188Z,8.77
2018-06-24T18:16:09.460Z,8.90
2018-06-24T18:18:41.628Z,7.43
2018-06-24T18:21:13.144Z,9.73
2018-06-24T18:23:45.467Z,11.27
2018-06-24T18:26:18.412Z,8.20
2018-06-24T18:28:51.273Z,8.00
2018-06-24T18:31:23.901Z,11.27
2018-06-24T18:33:55.733Z,12.90
2018-06-24T18:36:29.045Z,8.80
2018-06-24T18:39:02.000Z,10.07
2018-06-24T18:41:35.124Z,10.33
2018-06-24T18:44:18.878Z,12.10
2018-06-24T18:46:51.556Z,8.23
2018-06-24T18:49:23.646Z,12.43
2018-06-24T18:51:56.489Z,8.27
2018-06-24T18:54:34.599Z,7.57
2018-06-24T19:13:23.372Z,12.47
2018-06-24T19:15:57.496Z,14.77
2018-06-24T19:18:31.326Z,7.27
2018-06-24T19:21:05.284Z,5.60
2018-06-24T19:23:40.152Z,5.80
2018-06-24T19:26:13.856Z,5.20
2018-06-24T19:28:51.430Z,7.83
2018-06-24T19:31:25.194Z,9.43
2018-06-24T19:34:01.262Z,8.00
2018-06-24T19:36:33.431Z,4.97
2018-06-24T19:39:07.670Z,7.00
2018-06-24T19:41:42.842Z,3.87
2018-06-24T19:44:18.316Z,4.83
2018-06-24T19:46:53.123Z,3.10
2018-06-24T19:49:28.324Z,4.87
2018-06-24T19:52:03.122Z,5.93
2018-06-24T19:54:36.969Z,7.70
2018-06-24T19:57:13.840Z,8.10
2018-06-24T19:59:48.181Z,7.37
2018-06-24T20:02:26.282Z,6.10
2018-06-24T20:04:59.895Z,8.70
2018-06-24T20:07:34.910Z,5.53
2018-06-24T20:10:12.024Z,5.97
2018-06-24T20:12:45.420Z,5.73
2018-06-24T20:15:17.488Z,5.10
2018-06-24T20:17:50.401Z,4.77
2018-06-24T20:20:23.126Z,13.07
2018-06-24T20:22:57.329Z,4.70
2018-06-24T20:25:31.288Z,3.70
2018-06-24T20:28:03.683Z,10.33
2018-06-24T20:30:37.739Z,9.73
2018-06-24T20:33:12.055Z,4.37
2018-06-24T20:35:44.928Z,6.17
2018-06-24T20:38:21.831Z,4.80
2018-06-24T20:40:56.327Z,8.77
2018-06-24T20:43:29.875Z,4.47
2018-06-24T20:46:04.286Z,4.20
2018-06-24T20:48:38.638Z,14.87
2018-06-24T20:51:15.049Z,3.60
2018-06-24T20:53:48.846Z,4.73
2018-06-24T20:56:22.332Z,3.20
2018-06-24T20:58:57.376Z,5.83
2018-06-24T21:01:31.297Z,4.13
2018-06-24T21:04:04.807Z,9.30
2018-06-24T21:06:38.975Z,6.27
2018-06-24T21:09:13.173Z,5.20
2018-06-24T21:11:46.190Z,5.23
2018-06-24T21:14:19.603Z,5.90
2018-06-24T21:16:52.796Z,4.17
2018-06-24T21:19:26.047Z,4.57
2018-06-24T21:21:59.081Z,7.50
2018-06-24T21:24:36.484Z,5.07
2018-06-24T21:27:10.052Z,4.80
2018-06-24T21:29:42.768Z,3.50
2018-06-24T21:32:14.909Z,7.93
2018-06-24T21:34:47.298Z,8.53
2018-06-24T21:37:18.938Z,13.13
2018-06-24T21:39:50.757Z,4.97
2018-06-24T21:42:21.799Z,5.80
2018-06-24T21:44:51.772Z,8.33
2018-06-24T21:47:22.416Z,4.70
2018-06-24T21:49:52.958Z,10.87
2018-06-24T21:52:23.794Z,3.97
2018-06-24T21:54:54.433Z,3.33
2018-06-24T21:57:24.416Z,3.73
2018-06-24T21:59:55.085Z,9.50
2018-06-24T22:02:26.185Z,2.23
2018-06-24T22:04:56.054Z,4.70
2018-06-24T22:07:25.819Z,4.10
2018-06-24T22:09:56.325Z,2.33
2018-06-24T22:12:27.104Z,4.90
2018-06-24T22:14:57.728Z,3.73
2018-06-24T22:17:28.339Z,4.27
2018-06-24T22:19:59.222Z,4.97
2018-06-24T22:22:29.843Z,4.87
2018-06-24T22:25:00.710Z,3.83
2018-06-24T22:27:31.539Z,4.27
2018-06-24T22:30:02.319Z,5.27
2018-06-24T22:32:33.460Z,2.60
2018-06-24T22:35:03.410Z,2.20
2018-06-24T22:37:34.004Z,2.20
2018-06-24T22:40:04.895Z,4.93
2018-06-24T22:42:35.674Z,3.40
2018-06-24T22:45:06.423Z,5.20
2018-06-24T22:47:37.246Z,3.17
2018-06-24T22:50:08.011Z,3.60
2018-06-24T22:52:38.587Z,2.13
2018-06-24T22:55:09.563Z,3.53
2018-06-24T22:57:40.232Z,5.63
2018-06-24T23:00:19.258Z,3.47
2018-06-24T23:02:50.102Z,2.63
2018-06-24T23:05:20.381Z,2.67
2018-06-24T23:07:50.980Z,4.43
2018-06-24T23:10:21.750Z,4.07
2018-06-24T23:12:52.450Z,2.93
2018-06-24T23:15:23.202Z,5.97
2018-06-24T23:17:53.905Z,3.63
2018-06-24T23:20:24.480Z,2.60
2018-06-24T23:22:54.358Z,3.17
2018-06-24T23:25:24.999Z,3.40
2018-06-24T23:27:55.742Z,3.17
2018-06-24T23:30:26.302Z,4.33
2018-06-24T23:32:56.962Z,7.20
2018-06-24T23:35:27.501Z,2.43
2018-06-24T23:37:58.340Z,3.77
2018-06-24T23:40:28.942Z,3.47
2018-06-24T23:42:59.576Z,3.90
2018-06-24T23:45:30.214Z,2.73
2018-06-24T23:48:00.267Z,3.70
2018-06-24T23:50:30.996Z,4.17
2018-06-24T23:53:01.537Z,5.60
2018-06-24T23:55:32.260Z,2.40
2018-06-24T23:58:02.895Z,5.60
